Condomínio Guaporé II Heliport

BR-0094 · São Paulo, 巴西

罗盘
风向 的 风向 080° 直升机
风: 2 kt, 1 beaufort
0 ft 1.000 2.000 3.000 4.000 5.000
CAVOK
METAR SBRP 281100Z 08002KT CAVOK 26/20 Q1014

METAR Condomínio Guaporé II Heliport - BR-0094

Condomínio Guaporé II Heliport是,巴西中的直升机场。 该机场位于纬度-21,22665和经度-47,78207。 这个机场没有ICAO代码,我们使用BR-0094作为参考。 机场在Brasilia FIR中。

该航空气象观测是针对Leite Lopes Airport在2024年2月28日 08:00, 当地时间进行的。

机场观察

风向为080°,速度为2 kt。

天气为CAVOK。这意味着在5.000 ft或MSA(最低安全高度)以下(以较高者为准)以下没有云。这也意味着没有观测到积雨云或高耸的积云,可见度为10 km 或者更多或更高。此外,不会有雾,降雨或其他重要天气。

温度和风寒是26 °C。 露点为20 °C,相对湿度为70%。 海平面上的气压为1014 hPa (QNH)。

白天

今天,太阳从06:07升起,在18:39降落。 这适用于Condomínio Guaporé II Heliport,世界夏令时可能有所不同。 当地时间与世界标准时间之间的时差为-3 小时。 当前,没有夏令时有效。

公司介绍

我们没有关于这个机场的公司信息。

体会

到Vliegles.nl去找飞行课程,跳伞和其他飞行体验。 浏览页面,了解Condomínio Guaporé II Heliport附近所有可用的活动。 你也可以使用搜索功能来寻找你所在地附近的特定飞行课程、跳伞或其他飞行体验。

温度 & 天气

温度 26 °C
露点 20 °C
相对湿度 70%
Kp-index 2 (0-9)

白天

日出
06:07
中午
12:23
日落
18:39 (9:58)

小工具

你想在你的网站上有一个关于Condomínio Guaporé II Heliport的当前航空天气(METAR)的小部件吗?

显示HTML代码
?>